Time;durP1;ratioP1;P1;durP2;ratioP2;P2;SDS_P1;SDS_P2;PMS_P1;PMS_P2;Temp;Humidity;BMP_temperature;BMP_pressure;BME280_temperature;BME280_humidity;BME280_pressure;Samples;Min_cycle;Max_cycle;Signal;HPM_P1;HPM_P2
2021/09/28 02:47:23;;;;;;;28.70;18.35;;;18.90;99.90;;;;;;4866176;24;20056;-80
2021/09/28 02:49:49;;;;;;;27.58;18.85;;;18.90;99.90;;;;;;4717101;30;20064;-80
2021/09/28 02:52:15;;;;;;;26.17;18.73;;;18.90;99.90;;;;;;4716773;30;20338;-79
2021/09/28 02:54:41;;;;;;;23.77;17.70;;;19.00;99.90;;;;;;4716924;30;20043;-79
2021/09/28 02:57:07;;;;;;;24.40;17.70;;;19.00;99.90;;;;;;4731197;30;20314;-79
2021/09/28 02:59:33;;;;;;;22.20;17.80;;;19.00;99.90;;;;;;4730940;30;20041;-80
2021/09/28 03:01:59;;;;;;;22.55;18.10;;;19.00;99.90;;;;;;4717181;30;20028;-80
2021/09/28 03:04:25;;;;;;;23.50;18.25;;;19.00;99.90;;;;;;4716787;30;20324;-80
2021/09/28 03:06:50;;;;;;;22.10;17.60;;;19.00;99.90;;;;;;4730808;30;20108;-80
2021/09/28 03:09:17;;;;;;;24.83;17.52;;;19.00;99.90;;;;;;4716557;30;20032;-80
2021/09/28 03:11:42;;;;;;;22.03;17.40;;;19.00;99.90;;;;;;4747270;30;20101;-80
2021/09/28 03:14:08;;;;;;;21.17;17.20;;;19.00;99.90;;;;;;4716647;30;20260;-80
2021/09/28 03:16:34;;;;;;;22.80;16.90;;;19.00;99.90;;;;;;4731513;30;20029;-80
2021/09/28 03:19:00;;;;;;;23.63;17.52;;;19.10;99.90;;;;;;4716900;30;20029;-80
2021/09/28 03:21:26;;;;;;;19.83;16.80;;;19.10;99.90;;;;;;4732047;30;20033;-80
2021/09/28 03:23:51;;;;;;;21.15;16.58;;;19.10;99.90;;;;;;4716663;30;20028;-80
2021/09/28 03:26:17;;;;;;;23.00;16.33;;;19.10;99.90;;;;;;4731426;30;20063;-80
2021/09/28 03:28:44;;;;;;;20.52;16.65;;;19.20;99.90;;;;;;4717674;30;20028;-80
2021/09/28 03:31:09;;;;;;;22.95;15.88;;;19.20;99.90;;;;;;4716772;30;20111;-80
2021/09/28 03:33:35;;;;;;;18.30;16.02;;;19.10;99.90;;;;;;4716614;30;20025;-80
2021/09/28 03:36:01;;;;;;;19.73;16.10;;;19.20;99.90;;;;;;4731451;30;20029;-80
2021/09/28 03:38:27;;;;;;;21.67;15.20;;;19.10;99.90;;;;;;4731297;30;20043;-80
2021/09/28 03:40:52;;;;;;;23.00;16.52;;;19.20;99.90;;;;;;4731407;30;20078;-79
2021/09/28 03:43:18;;;;;;;22.08;14.93;;;19.10;99.90;;;;;;4731783;30;20032;-79
2021/09/28 03:45:44;;;;;;;23.75;16.85;;;19.00;99.90;;;;;;4712706;30;20167;-79
2021/09/28 03:48:10;;;;;;;20.65;16.05;;;19.10;99.90;;;;;;4714290;30;20037;-79
2021/09/28 03:50:37;;;;;;;20.42;15.85;;;19.00;99.90;;;;;;4699274;30;20037;-78
2021/09/28 03:53:04;;;;;;;26.40;16.92;;;19.00;99.90;;;;;;4685571;30;20093;-80
2021/09/28 03:55:30;;;;;;;27.13;18.10;;;19.00;99.90;;;;;;4713546;30;20041;-81
2021/09/28 03:57:55;;;;;;;25.58;17.00;;;19.00;99.90;;;;;;4699391;30;20049;-78
2021/09/28 04:00:22;;;;;;;28.67;18.63;;;19.00;99.90;;;;;;4699232;30;20033;-78
2021/09/28 04:02:49;;;;;;;29.63;18.43;;;18.90;99.90;;;;;;4698919;30;20391;-79
2021/09/28 04:05:15;;;;;;;26.60;18.27;;;19.00;99.90;;;;;;4713558;30;20359;-81
2021/09/28 04:07:41;;;;;;;24.90;19.65;;;18.90;99.90;;;;;;4699089;30;20064;-81
2021/09/28 04:10:09;;;;;;;25.40;19.00;;;18.90;99.90;;;;;;4730796;30;20039;-81
2021/09/28 04:12:38;;;;;;;24.67;19.23;;;18.90;99.90;;;;;;4703220;30;20089;-81
2021/09/28 04:15:06;;;;;;;24.27;19.02;;;18.90;99.90;;;;;;4702924;30;20355;-81
2021/09/28 04:17:31;;;;;;;22.92;17.50;;;18.80;99.90;;;;;;4702556;30;20043;-79
2021/09/28 04:19:57;;;;;;;29.20;18.58;;;18.90;99.90;;;;;;4732692;30;20037;-79
2021/09/28 04:22:24;;;;;;;28.52;18.13;;;18.80;99.90;;;;;;4716712;30;20099;-79
2021/09/28 04:24:50;;;;;;;27.77;19.70;;;18.80;99.90;;;;;;4730773;30;20107;-79
2021/09/28 04:27:17;;;;;;;27.10;19.52;;;18.70;99.90;;;;;;4732150;30;20278;-79
2021/09/28 04:29:43;;;;;;;26.90;20.25;;;18.80;99.90;;;;;;4702576;30;20076;-79
2021/09/28 04:32:09;;;;;;;26.25;17.27;;;18.80;99.90;;;;;;4731021;30;20037;-79
2021/09/28 04:34:36;;;;;;;23.35;17.75;;;18.80;99.90;;;;;;4731033;30;20324;-78
2021/09/28 04:37:01;;;;;;;26.42;18.80;;;18.80;99.90;;;;;;4731395;30;20033;-79
2021/09/28 04:39:27;;;;;;;22.25;17.50;;;18.80;99.90;;;;;;4731297;30;20093;-79
2021/09/28 04:41:53;;;;;;;25.23;17.58;;;18.70;99.90;;;;;;4731144;30;20029;-78
2021/09/28 04:44:19;;;;;;;23.40;16.55;;;18.80;99.90;;;;;;4731240;30;20112;-79
2021/09/28 04:46:44;;;;;;;30.95;17.67;;;18.70;99.90;;;;;;4722257;30;20052;-78
2021/09/28 04:49:10;;;;;;;23.52;17.52;;;18.70;99.90;;;;;;4719720;30;20115;-78
2021/09/28 04:51:36;;;;;;;22.92;17.05;;;18.70;99.90;;;;;;4733835;30;20036;-78
2021/09/28 04:54:03;;;;;;;23.88;16.33;;;18.80;99.90;;;;;;4717210;30;20055;-78
2021/09/28 04:56:28;;;;;;;21.07;16.27;;;18.70;99.90;;;;;;4717077;30;20082;-78
2021/09/28 04:58:54;;;;;;;23.05;16.75;;;18.80;99.90;;;;;;4749044;30;20099;-78
2021/09/28 05:01:20;;;;;;;22.48;16.90;;;18.80;99.90;;;;;;4718243;30;20040;-79
2021/09/28 05:03:46;;;;;;;24.58;17.67;;;18.80;99.90;;;;;;4732969;30;20036;-79
2021/09/28 05:06:12;;;;;;;21.00;16.20;;;18.80;99.90;;;;;;4733420;30;20350;-80
2021/09/28 05:08:39;;;;;;;22.10;15.23;;;18.70;99.90;;;;;;4748209;30;20091;-80
2021/09/28 05:11:09;;;;;;;19.40;15.25;;;18.70;99.90;;;;;;4733230;30;20095;-80
2021/09/28 05:13:34;;;;;;;18.75;15.00;;;18.70;99.90;;;;;;4718518;30;20070;-79
2021/09/28 05:16:00;;;;;;;18.35;14.90;;;18.70;99.90;;;;;;4733420;30;20038;-79
2021/09/28 05:18:26;;;;;;;20.73;15.77;;;18.70;99.90;;;;;;4719110;30;20318;-79
2021/09/28 05:20:52;;;;;;;18.75;14.15;;;18.70;99.90;;;;;;4719023;30;20095;-79
2021/09/28 05:23:18;;;;;;;19.58;15.50;;;18.70;99.90;;;;;;4730900;30;20052;-80
2021/09/28 05:25:44;;;;;;;17.58;14.75;;;18.80;99.90;;;;;;4732608;30;20060;-80
2021/09/28 05:28:10;;;;;;;22.03;15.40;;;18.80;99.90;;;;;;4718994;30;20102;-80
2021/09/28 05:30:37;;;;;;;21.85;14.35;;;18.80;99.90;;;;;;4734019;30;20086;-79
2021/09/28 05:33:03;;;;;;;20.77;15.30;;;18.80;99.90;;;;;;4733945;30;20052;-79
2021/09/28 05:35:29;;;;;;;17.85;14.40;;;18.80;99.90;;;;;;4733602;30;20036;-80
2021/09/28 05:37:55;;;;;;;20.25;14.50;;;18.90;99.90;;;;;;4733323;30;20344;-80
2021/09/28 05:40:21;;;;;;;17.90;14.52;;;18.90;99.90;;;;;;4718777;30;20300;-80
2021/09/28 05:42:46;;;;;;;19.90;15.35;;;18.90;99.90;;;;;;4733026;30;20041;-80
2021/09/28 05:45:12;;;;;;;20.65;16.42;;;18.90;99.90;;;;;;4732950;30;20074;-80
2021/09/28 05:47:38;;;;;;;20.90;15.65;;;19.00;99.90;;;;;;4729340;30;20052;-79
2021/09/28 05:50:07;;;;;;;21.52;16.40;;;19.00;99.90;;;;;;4717120;30;20037;-80
2021/09/28 05:52:33;;;;;;;19.88;16.40;;;19.00;99.90;;;;;;4725509;30;20457;-80
2021/09/28 05:55:01;;;;;;;20.17;15.90;;;19.00;99.90;;;;;;4708099;30;20044;-80
2021/09/28 05:57:27;;;;;;;27.08;15.27;;;19.00;99.90;;;;;;4744749;30;20044;-80
2021/09/28 05:59:52;;;;;;;23.70;16.98;;;19.00;99.90;;;;;;4732242;30;20036;-79
2021/09/28 06:02:19;;;;;;;24.60;16.70;;;19.10;99.90;;;;;;4732429;30;20236;-80
2021/09/28 06:04:46;;;;;;;23.15;16.30;;;19.00;99.90;;;;;;4731922;30;20261;-80
2021/09/28 06:07:14;;;;;;;;;;;19.10;99.90;;;;;;4732858;30;20047;-80
2021/09/28 06:09:41;;;;;;;27.35;17.23;;;19.10;99.90;;;;;;4731702;30;19918;-80
2021/09/28 06:12:08;;;;;;;;;;;19.10;99.90;;;;;;4718649;30;20079;-80
2021/09/28 06:14:34;;;;;;;17.88;14.55;;;19.10;99.90;;;;;;4748464;30;19911;-80
2021/09/28 06:17:01;;;;;;;26.40;15.90;;;19.10;99.90;;;;;;4709137;30;20057;-81
2021/09/28 06:19:28;;;;;;;25.65;17.00;;;19.20;99.90;;;;;;4714146;30;20341;-80
2021/09/28 06:21:54;;;;;;;23.02;16.52;;;19.20;99.90;;;;;;4714831;30;20320;-80
2021/09/28 06:24:20;;;;;;;22.50;15.95;;;19.20;99.90;;;;;;4731613;30;20033;-80
2021/09/28 06:26:48;;;;;;;26.98;16.05;;;19.30;99.90;;;;;;4714522;30;20266;-80
2021/09/28 06:29:14;;;;;;;27.20;16.05;;;19.30;99.90;;;;;;4731537;30;20040;-80
2021/09/28 06:31:41;;;;;;;20.35;15.43;;;19.30;99.90;;;;;;4731762;30;20047;-80
2021/09/28 06:34:08;;;;;;;22.75;14.80;;;19.30;99.60;;;;;;4731428;30;20045;-80
2021/09/28 06:36:35;;;;;;;22.38;15.38;;;19.30;99.60;;;;;;4747493;30;20032;-80
2021/09/28 06:39:02;;;;;;;23.55;15.70;;;19.30;99.70;;;;;;4731719;30;20044;-80
2021/09/28 06:41:28;;;;;;;18.55;14.40;;;19.30;99.40;;;;;;4717522;30;20217;-79
2021/09/28 06:43:54;;;;;;;21.13;15.60;;;19.30;99.30;;;;;;4732002;30;20029;-80
2021/09/28 06:46:21;;;;;;;20.83;14.55;;;19.30;99.20;;;;;;4729062;30;20099;-80
2021/09/28 06:48:47;;;;;;;19.33;13.52;;;19.30;99.20;;;;;;4711464;30;20055;-80
2021/09/28 06:51:14;;;;;;;18.30;13.60;;;19.30;99.10;;;;;;4716803;30;20040;-80
2021/09/28 06:53:40;;;;;;;20.60;14.07;;;19.30;98.90;;;;;;4731167;30;20044;-80
2021/09/28 06:56:06;;;;;;;19.92;14.23;;;19.40;99.00;;;;;;4746635;30;20071;-80
2021/09/28 06:58:33;;;;;;;19.42;14.75;;;19.30;98.50;;;;;;4746250;30;20421;-80
2021/09/28 07:00:58;;;;;;;27.30;15.32;;;19.30;98.90;;;;;;4730657;30;20041;-81
2021/09/28 07:03:24;;;;;;;21.08;15.82;;;19.30;99.00;;;;;;4731172;30;20035;-80
2021/09/28 07:05:50;;;;;;;19.17;14.77;;;19.30;99.00;;;;;;4730732;30;20021;-80
2021/09/28 07:08:17;;;;;;;20.25;15.52;;;19.40;99.00;;;;;;4746600;30;20104;-81
2021/09/28 07:10:43;;;;;;;18.88;14.57;;;19.40;98.80;;;;;;4745465;30;20036;-80
2021/09/28 07:13:09;;;;;;;18.08;14.85;;;19.40;98.70;;;;;;4743453;30;20259;-80
2021/09/28 07:15:34;;;;;;;18.98;14.60;;;19.30;98.80;;;;;;4730318;30;20040;-80
2021/09/28 07:18:00;;;;;;;23.13;15.63;;;19.40;98.40;;;;;;4705434;30;20104;-81
2021/09/28 07:20:26;;;;;;;21.63;15.25;;;19.40;98.50;;;;;;4717011;30;20033;-80
2021/09/28 07:22:52;;;;;;;20.60;13.98;;;19.40;98.20;;;;;;4730970;30;20317;-80
2021/09/28 07:25:18;;;;;;;22.33;14.25;;;19.50;98.50;;;;;;4731196;30;20021;-80
2021/09/28 07:27:44;;;;;;;22.80;15.15;;;19.50;98.30;;;;;;4731481;30;20033;-81
2021/09/28 07:30:11;;;;;;;17.83;13.23;;;19.50;98.10;;;;;;4732154;30;20068;-80
2021/09/28 07:32:37;;;;;;;16.50;13.10;;;19.60;97.90;;;;;;4746116;30;20029;-81
2021/09/28 07:35:03;;;;;;;18.42;13.50;;;19.60;97.70;;;;;;4731661;30;20052;-81
2021/09/28 07:37:29;;;;;;;18.65;13.20;;;19.60;97.90;;;;;;4730595;30;20029;-81
2021/09/28 07:39:57;;;;;;;21.27;15.18;;;19.60;97.80;;;;;;4730294;30;20044;-81
2021/09/28 07:42:24;;;;;;;17.63;13.73;;;19.60;97.70;;;;;;4732222;30;20040;-81
2021/09/28 07:44:55;;;;;;;19.67;13.80;;;19.70;97.50;;;;;;4731784;30;20056;-81
2021/09/28 07:47:21;;;;;;;19.60;14.40;;;19.80;97.40;;;;;;4747633;30;20106;-81
2021/09/28 07:49:47;;;;;;;20.25;14.13;;;19.80;97.30;;;;;;4717498;30;20036;-81
2021/09/28 07:52:14;;;;;;;31.40;13.93;;;19.90;97.10;;;;;;4731583;30;20029;-81
2021/09/28 07:54:40;;;;;;;;;;;20.00;96.90;;;;;;4732026;30;20043;-81
2021/09/28 07:57:06;;;;;;;24.98;15.20;;;20.00;96.30;;;;;;4715975;30;19918;-81
2021/09/28 07:59:32;;;;;;;33.73;15.10;;;20.10;96.80;;;;;;4731040;30;20447;-82
2021/09/28 08:01:58;;;;;;;19.05;13.80;;;20.20;96.60;;;;;;4746052;30;20088;-81
2021/09/28 08:04:24;;;;;;;21.35;14.68;;;20.30;96.20;;;;;;4725339;30;20347;-82
2021/09/28 08:06:49;;;;;;;19.45;14.10;;;20.40;96.30;;;;;;4706705;30;20041;-81
2021/09/28 08:09:15;;;;;;;24.65;14.82;;;20.60;96.00;;;;;;4716131;30;20266;-82
2021/09/28 08:11:41;;;;;;;17.98;13.02;;;20.80;95.40;;;;;;4715933;30;20043;-82
2021/09/28 08:14:08;;;;;;;21.25;13.30;;;20.90;95.20;;;;;;4715883;30;20037;-82
2021/09/28 08:16:34;;;;;;;;;;;21.00;94.80;;;;;;4716024;30;20036;-82
2021/09/28 08:19:01;;;;;;;22.00;13.10;;;21.10;94.70;;;;;;4712544;30;19915;-82
2021/09/28 08:21:27;;;;;;;29.42;14.38;;;21.10;94.20;;;;;;4712532;30;20063;-82
2021/09/28 08:23:53;;;;;;;21.33;12.85;;;21.10;94.20;;;;;;4698228;30;20042;-82
2021/09/28 08:31:33;;;;;;;19.23;13.32;;;21.10;94.20;;;;;;4730161;30;20037;-82
2021/09/28 08:33:59;;;;;;;17.77;13.15;;;21.20;94.30;;;;;;4745491;30;20025;-82
2021/09/28 08:36:25;;;;;;;20.83;14.75;;;21.30;93.90;;;;;;4731511;30;20032;-82
2021/09/28 08:38:51;;;;;;;25.67;16.33;;;21.50;93.40;;;;;;4746575;30;20086;-82
2021/09/28 08:41:16;;;;;;;19.90;15.13;;;21.60;93.40;;;;;;4730536;30;20201;-82
2021/09/28 08:43:42;;;;;;;26.35;15.55;;;21.90;93.20;;;;;;4729952;30;20024;-82
2021/09/28 08:46:08;;;;;;;19.88;14.65;;;22.10;93.20;;;;;;4730787;30;20080;-82
2021/09/28 08:48:34;;;;;;;20.17;14.70;;;22.40;92.50;;;;;;4730623;30;20032;-82
2021/09/28 08:50:59;;;;;;;19.52;14.25;;;22.60;91.60;;;;;;4730729;30;20156;-82
2021/09/28 08:53:25;;;;;;;27.20;15.25;;;22.60;91.60;;;;;;4730299;30;20033;-81
2021/09/28 08:55:51;;;;;;;21.15;16.48;;;22.80;91.60;;;;;;4716159;30;20037;-82
2021/09/28 08:58:22;;;;;;;20.98;15.65;;;23.00;91.30;;;;;;4733344;30;20040;-82
2021/09/28 09:00:50;;;;;;;21.13;15.82;;;23.10;91.10;;;;;;4733816;30;20229;-82
2021/09/28 09:03:34;;;;;;;18.48;15.20;;;23.30;89.80;;;;;;4733582;30;20029;-82
2021/09/28 09:06:03;;;;;;;18.67;14.15;;;23.40;89.10;;;;;;4718617;30;20028;-82
2021/09/28 09:08:33;;;;;;;24.50;14.98;;;23.50;89.10;;;;;;4718941;30;20036;-81
2021/09/28 09:11:10;;;;;;;18.48;14.57;;;23.70;88.90;;;;;;4733265;30;20040;-82
2021/09/28 09:13:39;;;;;;;23.25;14.15;;;23.80;87.10;;;;;;4718867;30;20044;-82
2021/09/28 09:16:05;;;;;;;22.65;14.43;;;23.80;87.70;;;;;;4748522;30;20047;-82
2021/09/28 09:18:35;;;;;;;20.08;13.68;;;24.00;87.30;;;;;;4748825;30;20319;-83
2021/09/28 09:21:03;;;;;;;17.52;13.20;;;24.00;86.60;;;;;;4747997;30;20344;-82
2021/09/28 09:23:39;;;;;;;44.63;13.65;;;24.20;88.00;;;;;;4747413;30;20088;-82
2021/09/28 09:26:06;;;;;;;17.63;13.07;;;24.40;84.60;;;;;;4747163;30;20039;-82
2021/09/28 09:28:42;;;;;;;17.80;13.52;;;24.60;85.50;;;;;;4747431;30;20029;-82
2021/09/28 09:31:32;;;;;;;21.02;13.75;;;24.60;82.90;;;;;;4747474;30;20064;-82
2021/09/28 09:34:19;;;;;;;15.30;11.70;;;24.70;84.60;;;;;;4732691;30;20351;-82
2021/09/28 09:36:58;;;;;;;16.20;11.55;;;24.80;84.40;;;;;;4746958;30;20068;-82
2021/09/28 09:39:26;;;;;;;14.75;10.60;;;25.00;83.10;;;;;;4747055;30;20327;-82
2021/09/28 09:42:03;;;;;;;14.98;11.15;;;25.10;82.00;;;;;;4746651;30;20296;-81
2021/09/28 09:44:30;;;;;;;22.63;12.80;;;25.20;80.80;;;;;;4746543;30;20122;-82
2021/09/28 09:46:58;;;;;;;17.10;11.30;;;25.20;79.50;;;;;;4751245;30;20056;-82
2021/09/28 09:49:27;;;;;;;42.00;12.20;;;25.20;81.40;;;;;;4731701;30;20037;-82
2021/09/28 09:51:55;;;;;;;20.23;11.63;;;25.20;81.50;;;;;;4717495;30;20029;-82
2021/09/28 09:54:33;;;;;;;16.67;10.52;;;25.30;80.80;;;;;;4718091;30;20058;-81
2021/09/28 09:57:02;;;;;;;16.35;10.48;;;25.30;80.00;;;;;;4717373;30;20020;-82
2021/09/28 09:59:28;;;;;;;13.68;10.98;;;25.30;78.70;;;;;;4731918;30;20032;-82
2021/09/28 10:01:54;;;;;;;15.43;10.52;;;25.20;79.80;;;;;;4747857;30;20197;-82
2021/09/28 10:04:24;;;;;;;12.93;10.60;;;25.30;80.70;;;;;;4747597;30;20033;-81
2021/09/28 10:06:51;;;;;;;13.90;10.07;;;25.50;78.50;;;;;;4717761;30;20095;-81
2021/09/28 10:09:27;;;;;;;15.25;11.10;;;25.50;80.30;;;;;;4717475;30;20086;-81
2021/09/28 10:11:55;;;;;;;11.93;9.73;;;25.50;78.40;;;;;;4733046;30;20182;-82
2021/09/28 10:14:28;;;;;;;13.02;10.20;;;25.60;77.30;;;;;;4732204;30;20115;-81
2021/09/28 10:16:56;;;;;;;15.13;10.45;;;25.60;78.20;;;;;;4717393;30;20043;-81
2021/09/28 10:19:36;;;;;;;11.25;9.38;;;25.70;77.20;;;;;;4717180;30;20040;-80
2021/09/28 10:22:03;;;;;;;13.75;10.60;;;25.60;76.50;;;;;;4747372;30;20090;-81
2021/09/28 10:24:34;;;;;;;12.50;10.40;;;25.70;77.70;;;;;;4717143;30;20107;-80
2021/09/28 10:27:00;;;;;;;16.40;10.07;;;25.80;76.60;;;;;;4717122;30;20339;-80
2021/09/28 10:29:42;;;;;;;14.50;10.50;;;25.90;77.50;;;;;;4717051;30;20037;-80
2021/09/28 10:32:28;;;;;;;13.82;10.43;;;26.00;76.80;;;;;;4716778;30;20041;-80
2021/09/28 10:35:09;;;;;;;14.25;9.70;;;26.00;76.50;;;;;;4717282;30;20039;-80
2021/09/28 10:37:41;;;;;;;14.27;9.02;;;26.10;75.80;;;;;;4731858;30;20358;-81
2021/09/28 10:40:08;;;;;;;11.20;9.45;;;26.30;76.10;;;;;;4716830;30;20033;-81
2021/09/28 10:42:48;;;;;;;;;;;26.50;74.70;;;;;;4731869;30;20036;-81
2021/09/28 10:45:41;;;;;;;10.93;8.57;;;26.60;72.50;;;;;;4746372;30;19964;-80
2021/09/28 10:48:25;;;;;;;13.05;8.38;;;26.50;72.00;;;;;;4711541;30;20045;-80
2021/09/28 10:51:13;;;;;;;13.02;8.43;;;26.40;74.00;;;;;;4730271;30;20044;-81
2021/09/28 10:53:41;;;;;;;12.68;8.73;;;26.50;73.80;;;;;;4725850;30;20028;-80
2021/09/28 10:56:11;;;;;;;12.88;8.68;;;26.50;74.70;;;;;;4730153;30;20087;-80
2021/09/28 10:58:51;;;;;;;9.45;8.07;;;26.60;71.80;;;;;;4712790;30;20089;-81
2021/09/28 11:01:18;;;;;;;10.85;8.00;;;26.60;70.80;;;;;;4698804;30;20037;-80
2021/09/28 11:03:48;;;;;;;;;;;26.50;72.50;;;;;;4709487;30;20040;-80
2021/09/28 11:06:15;;;;;;;10.52;7.78;;;26.40;70.70;;;;;;4730369;30;19915;-81
2021/09/28 11:08:41;;;;;;;;;;;26.30;72.30;;;;;;4731010;30;20032;-80
2021/09/28 11:11:11;;;;;;;8.82;7.30;;;25.90;71.50;;;;;;4730656;30;20299;-80
2021/09/28 11:13:42;;;;;;;10.43;8.20;;;25.90;73.30;;;;;;4714660;30;20267;-80
2021/09/28 11:16:10;;;;;;;9.85;6.75;;;26.30;73.30;;;;;;4728302;30;20032;-80
2021/09/28 11:18:38;;;;;;;14.05;7.80;;;26.60;71.80;;;;;;4727581;30;20041;-80
2021/09/28 11:21:12;;;;;;;10.43;6.88;;;26.40;70.60;;;;;;4721362;30;20044;-80
2021/09/28 11:23:39;;;;;;;10.32;8.05;;;26.30;69.80;;;;;;4713981;30;20033;-81
2021/09/28 11:26:05;;;;;;;16.27;7.90;;;26.30;71.60;;;;;;4729014;30;20328;-81
2021/09/28 11:28:32;;;;;;;9.52;7.20;;;26.10;70.90;;;;;;4727103;30;20268;-80
2021/09/28 11:31:01;;;;;;;8.47;7.07;;;26.00;72.10;;;;;;4715137;30;20058;-80
2021/09/28 11:33:28;;;;;;;9.73;7.68;;;26.00;71.70;;;;;;4698262;30;20087;-80
2021/09/28 11:35:57;;;;;;;8.98;7.47;;;25.80;70.90;;;;;;4698261;30;20043;-81
2021/09/28 11:38:33;;;;;;;11.98;7.45;;;26.00;71.50;;;;;;4698082;30;20115;-80
2021/09/28 11:41:11;;;;;;;9.48;7.32;;;26.00;70.80;;;;;;4712605;30;20033;-80
2021/09/28 11:43:38;;;;;;;10.73;7.43;;;25.90;71.00;;;;;;4712561;30;20325;-80
2021/09/28 11:46:13;;;;;;;14.05;7.43;;;25.90;71.80;;;;;;4713616;30;20285;-80
2021/09/28 11:48:40;;;;;;;10.10;7.95;;;25.90;71.70;;;;;;4715330;30;20033;-80
2021/09/28 11:51:23;;;;;;;11.52;8.23;;;25.70;71.70;;;;;;4728071;30;20061;-80
2021/09/28 11:53:51;;;;;;;17.35;7.70;;;25.50;72.90;;;;;;4729734;30;20048;-80
2021/09/28 11:56:20;;;;;;;13.73;8.23;;;25.60;73.40;;;;;;4729985;30;20048;-80
2021/09/28 11:58:51;;;;;;;9.30;7.72;;;25.80;74.50;;;;;;4712114;30;20296;-80
2021/09/28 12:01:19;;;;;;;9.75;7.20;;;25.90;73.20;;;;;;4728721;30;20264;-80
2021/09/28 12:07:03;;;;;;;8.27;7.28;;;26.40;71.50;;;;;;4728662;30;20061;-81
2021/09/28 12:09:29;;;;;;;8.73;7.15;;;26.60;70.80;;;;;;4712829;30;20036;-80
2021/09/28 12:12:10;;;;;;;8.63;7.72;;;26.50;67.70;;;;;;4715600;30;20063;-80
2021/09/28 12:14:44;;;;;;;9.98;6.43;;;26.40;68.20;;;;;;4727875;30;20033;-80
2021/09/28 12:17:20;;;;;;;8.75;6.93;;;26.40;68.80;;;;;;4737770;30;20089;-81
2021/09/28 12:19:50;;;;;;;8.82;6.47;;;26.70;68.60;;;;;;4715312;30;20079;-81
2021/09/28 12:22:33;;;;;;;10.13;6.25;;;26.90;67.60;;;;;;4715453;30;20041;-81
2021/09/28 12:25:00;;;;;;;10.85;6.20;;;27.10;67.80;;;;;;4715262;30;20032;-81
2021/09/28 12:27:27;;;;;;;10.23;6.43;;;27.30;67.80;;;;;;4742421;30;20040;-81
2021/09/28 12:29:55;;;;;;;8.52;6.55;;;27.30;66.20;;;;;;4715043;30;20246;-81
2021/09/28 12:32:32;;;;;;;8.10;6.03;;;27.10;66.90;;;;;;4716614;30;20036;-81
2021/09/28 12:35:07;;;;;;;9.70;6.18;;;27.10;65.00;;;;;;4748518;30;20120;-81
2021/09/28 12:37:51;;;;;;;8.73;6.20;;;26.90;64.70;;;;;;4731633;30;20064;-81
2021/09/28 12:40:20;;;;;;;11.27;6.80;;;26.90;66.10;;;;;;4748852;30;20081;-81
2021/09/28 12:42:46;;;;;;;15.93;6.75;;;26.90;66.80;;;;;;4718377;30;20383;-81
2021/09/28 12:45:15;;;;;;;7.90;5.90;;;27.00;66.60;;;;;;4718782;30;20024;-81
2021/09/28 12:47:44;;;;;;;8.52;5.53;;;27.00;63.70;;;;;;4718120;30;20049;-81
2021/09/28 12:50:21;;;;;;;9.43;5.93;;;26.90;62.80;;;;;;4712838;30;20030;-81
2021/09/28 12:52:49;;;;;;;8.10;6.30;;;26.80;64.60;;;;;;4712989;30;20038;-81
2021/09/28 12:55:16;;;;;;;19.77;7.65;;;26.70;65.10;;;;;;4713338;30;20033;-81
2021/09/28 12:57:42;;;;;;;10.35;6.88;;;26.70;64.80;;;;;;4713554;30;20336;-81
2021/09/28 13:00:09;;;;;;;8.27;5.88;;;26.80;66.30;;;;;;4713622;30;20040;-81
2021/09/28 13:02:35;;;;;;;13.00;6.32;;;26.90;65.00;;;;;;4716655;30;20029;-81
2021/09/28 13:05:02;;;;;;;6.22;5.47;;;26.90;64.90;;;;;;4730420;30;20674;-81
2021/09/28 13:07:28;;;;;;;10.45;6.68;;;26.90;64.90;;;;;;4729983;30;20124;-81
2021/09/28 13:09:55;;;;;;;8.43;6.17;;;26.80;64.70;;;;;;4715974;30;20037;-81
2021/09/28 13:12:21;;;;;;;9.30;5.90;;;26.70;64.90;;;;;;4715644;30;20029;-81
2021/09/28 13:14:47;;;;;;;10.70;6.00;;;26.60;65.70;;;;;;4713068;30;20045;-81
2021/09/28 13:17:13;;;;;;;9.05;6.55;;;26.50;65.50;;;;;;4721941;30;20284;-81
2021/09/28 13:19:38;;;;;;;9.10;6.15;;;26.50;65.70;;;;;;4730149;30;20065;-81
2021/09/28 13:22:05;;;;;;;9.15;6.13;;;26.60;64.80;;;;;;4730692;30;20029;-81
2021/09/28 13:24:31;;;;;;;9.65;6.22;;;26.70;64.10;;;;;;4728983;30;20111;-81
2021/09/28 13:26:57;;;;;;;10.35;6.50;;;26.90;63.60;;;;;;4714980;30;20045;-81
2021/09/28 13:29:22;;;;;;;12.30;6.38;;;26.90;64.80;;;;;;4728930;30;20044;-81
2021/09/28 13:31:48;;;;;;;9.48;5.82;;;27.10;62.70;;;;;;4730296;30;20515;-81
2021/09/28 13:34:14;;;;;;;20.13;7.38;;;27.10;64.00;;;;;;4730246;30;20047;-81
2021/09/28 13:36:40;;;;;;;11.63;6.50;;;27.20;64.70;;;;;;4730279;30;20055;-81
2021/09/28 13:39:07;;;;;;;7.03;6.03;;;27.40;65.00;;;;;;4728619;30;20040;-81
2021/09/28 13:41:33;;;;;;;;;;;27.60;65.00;;;;;;4715090;30;20036;-81
2021/09/28 13:43:59;;;;;;;10.40;5.90;;;27.60;63.90;;;;;;4714639;30;19910;-79
2021/09/28 13:46:25;;;;;;;9.00;6.22;;;27.50;63.40;;;;;;4738282;30;20052;-81
2021/09/28 13:48:51;;;;;;;8.23;6.60;;;27.40;63.30;;;;;;4731633;30;20032;-81
2021/09/28 13:51:17;;;;;;;7.17;6.10;;;27.40;63.80;;;;;;4731967;30;20036;-81
2021/09/28 13:53:43;;;;;;;7.20;5.82;;;27.40;62.00;;;;;;4741798;30;20040;-81
2021/09/28 13:56:09;;;;;;;7.37;5.63;;;27.20;62.00;;;;;;4730965;30;20043;-81
2021/09/28 13:58:34;;;;;;;9.40;6.85;;;27.00;62.80;;;;;;4731385;30;20290;-81
2021/09/28 14:01:00;;;;;;;14.65;6.25;;;26.90;63.50;;;;;;4731806;30;20029;-81
2021/09/28 14:03:26;;;;;;;24.05;7.20;;;26.90;65.00;;;;;;4731584;30;20032;-82
2021/09/28 14:05:52;;;;;;;24.80;6.35;;;27.00;63.30;;;;;;4732001;30;20024;-81
2021/09/28 14:08:17;;;;;;;24.60;7.35;;;27.00;64.50;;;;;;4747307;30;20385;-81
2021/09/28 14:10:43;;;;;;;8.68;5.80;;;27.10;63.90;;;;;;4730614;30;20032;-81
2021/09/28 14:13:09;;;;;;;8.70;6.10;;;27.20;64.60;;;;;;4715536;30;20040;-81
2021/09/28 14:15:35;;;;;;;7.68;6.13;;;27.20;64.50;;;;;;4747470;30;20029;-81
2021/09/28 14:18:03;;;;;;;12.70;5.90;;;27.10;64.20;;;;;;4717001;30;20048;-81
2021/09/28 14:20:29;;;;;;;10.80;6.05;;;27.00;63.30;;;;;;4731964;30;20138;-81
2021/09/28 14:22:55;;;;;;;12.90;6.40;;;26.90;64.90;;;;;;4731443;30;20344;-81
2021/09/28 14:25:20;;;;;;;7.10;6.25;;;26.90;64.50;;;;;;4731409;30;20096;-81
2021/09/28 14:27:46;;;;;;;8.52;6.60;;;26.90;64.60;;;;;;4731487;30;20036;-81
2021/09/28 14:30:13;;;;;;;10.13;5.55;;;26.90;64.50;;;;;;4731367;30;20037;-81
2021/09/28 14:32:40;;;;;;;7.38;5.70;;;26.90;64.50;;;;;;4731308;30;20040;-81
2021/09/28 14:35:07;;;;;;;15.40;6.00;;;26.80;64.40;;;;;;4730574;30;20028;-82
2021/09/28 14:37:33;;;;;;;9.90;5.95;;;26.70;63.80;;;;;;4716768;30;20071;-82
2021/09/28 14:40:02;;;;;;;13.40;6.32;;;26.60;64.20;;;;;;4731684;30;20024;-81
2021/09/28 14:42:28;;;;;;;8.43;6.30;;;26.60;64.10;;;;;;4715355;30;20036;-81
2021/09/28 14:44:55;;;;;;;34.28;8.15;;;26.60;64.40;;;;;;4716811;30;20056;-81
2021/09/28 14:47:21;;;;;;;10.88;6.25;;;26.60;64.60;;;;;;4731112;30;20051;-79
2021/09/28 14:49:47;;;;;;;9.45;6.68;;;26.60;63.80;;;;;;4716848;30;20032;-79
2021/09/28 14:52:13;;;;;;;6.85;6.15;;;26.60;64.20;;;;;;4716562;30;20248;-79
2021/09/28 14:54:38;;;;;;;7.50;5.88;;;26.70;64.20;;;;;;4730229;30;20070;-79
2021/09/28 14:57:04;;;;;;;6.50;4.65;;;26.70;63.20;;;;;;4716562;30;20282;-79
2021/09/28 14:59:30;;;;;;;7.00;5.78;;;26.60;62.70;;;;;;4730826;30;20037;-79
2021/09/28 15:01:57;;;;;;;31.08;8.13;;;26.50;63.70;;;;;;4716447;30;20043;-79
2021/09/28 15:04:25;;;;;;;12.50;6.15;;;26.30;64.40;;;;;;4713518;30;20213;-80
2021/09/28 15:06:51;;;;;;;7.47;6.30;;;26.10;65.00;;;;;;4716151;30;20090;-80
2021/09/28 15:09:17;;;;;;;9.43;6.32;;;26.10;65.80;;;;;;4746664;30;20056;-80
2021/09/28 15:11:43;;;;;;;12.60;6.57;;;26.00;66.10;;;;;;4716575;30;20044;-80
2021/09/28 15:14:09;;;;;;;8.90;5.90;;;26.00;65.90;;;;;;4716402;30;20036;-80
2021/09/28 15:16:35;;;;;;;28.38;6.97;;;25.90;65.00;;;;;;4715606;30;20275;-81
2021/09/28 15:19:02;;;;;;;10.13;5.70;;;25.90;65.70;;;;;;4716174;30;20036;-81
2021/09/28 15:21:27;;;;;;;;;;;25.90;66.50;;;;;;4716653;30;20032;-81
2021/09/28 15:23:55;;;;;;;11.20;5.87;;;25.90;67.00;;;;;;4730903;30;19933;-81
2021/09/28 15:26:22;;;;;;;10.82;5.97;;;25.80;66.10;;;;;;4746391;30;20320;-81
2021/09/28 15:28:48;;;;;;;9.68;5.47;;;25.80;65.80;;;;;;4731034;30;20033;-80
2021/09/28 15:31:28;;;;;;;7.70;5.90;;;25.80;65.50;;;;;;4730571;30;20036;-81
2021/09/28 15:33:54;;;;;;;8.13;5.50;;;25.80;65.70;;;;;;4731308;30;20656;-81